createdAt,value
2023-03-23T15:59:08.023Z,40.91
2023-03-23T16:01:43.710Z,40.91
2023-03-23T16:04:19.437Z,41.00
2023-03-23T16:06:59.594Z,40.83
2023-03-23T16:09:33.724Z,40.57
2023-03-23T16:12:07.946Z,40.39
2023-03-23T16:14:42.349Z,40.50
2023-03-23T16:17:23.936Z,40.36
2023-03-23T16:19:59.053Z,40.45
2023-03-23T16:22:33.041Z,40.37
2023-03-23T16:25:07.874Z,40.36
2023-03-23T16:27:43.005Z,40.43
2023-03-23T16:30:21.276Z,40.69
2023-03-23T16:32:57.676Z,40.55
2023-03-23T16:35:32.347Z,40.84
2023-03-23T16:38:07.762Z,40.71
2023-03-23T16:40:41.867Z,40.62
2023-03-23T16:43:16.556Z,40.52
2023-03-23T16:45:51.154Z,40.64
2023-03-23T16:48:25.408Z,40.48
2023-03-23T16:50:59.138Z,40.96
2023-03-23T16:53:33.137Z,41.03
2023-03-23T16:56:08.156Z,41.25
2023-03-23T16:58:43.731Z,40.86
2023-03-23T17:01:17.909Z,40.78
2023-03-23T17:03:51.921Z,40.97
2023-03-23T17:06:26.521Z,41.14
2023-03-23T17:09:01.106Z,41.27
2023-03-23T17:11:35.144Z,41.33
2023-03-23T17:14:08.896Z,41.48
2023-03-23T17:16:42.807Z,41.62
2023-03-23T17:19:16.810Z,41.72
2023-03-23T17:21:52.049Z,42.01
2023-03-23T17:24:32.963Z,41.99
2023-03-23T17:27:07.556Z,42.12
2023-03-23T17:29:41.302Z,42.25
2023-03-23T17:32:14.888Z,42.34
2023-03-23T17:34:48.960Z,42.47
2023-03-23T17:37:24.392Z,42.74
2023-03-23T17:39:59.259Z,42.98
2023-03-23T17:42:33.738Z,43.24
2023-03-23T17:45:08.797Z,43.40
2023-03-23T17:47:43.109Z,43.49
2023-03-23T17:50:18.457Z,43.70
2023-03-23T17:52:53.884Z,43.76
2023-03-23T17:55:29.057Z,43.88
2023-03-23T17:58:07.523Z,43.81
2023-03-23T18:00:42.128Z,43.81
2023-03-23T18:03:16.279Z,43.89
2023-03-23T18:05:54.139Z,44.04
2023-03-23T18:08:28.580Z,43.88
2023-03-23T18:11:03.549Z,43.99
2023-03-23T18:13:40.137Z,44.01
2023-03-23T18:16:14.350Z,44.21
2023-03-23T18:18:48.907Z,44.47
2023-03-23T18:21:23.715Z,44.68
2023-03-23T18:23:59.874Z,44.83
2023-03-23T18:26:34.147Z,45.16
2023-03-23T18:29:09.137Z,45.44
2023-03-23T18:31:44.658Z,45.84
2023-03-23T18:34:18.803Z,45.96
2023-03-23T18:36:53.353Z,46.05
2023-03-23T18:39:27.065Z,46.20
2023-03-23T18:42:00.667Z,46.36
2023-03-23T18:44:37.516Z,46.75
2023-03-23T18:47:10.321Z,46.82
2023-03-23T18:49:46.711Z,46.91
2023-03-23T18:52:20.425Z,47.01
2023-03-23T18:54:54.262Z,47.11
2023-03-23T18:57:28.829Z,47.02
2023-03-23T19:00:02.570Z,46.99
2023-03-23T19:02:39.798Z,47.18
2023-03-23T19:05:14.874Z,46.97
2023-03-23T19:07:48.988Z,47.26
2023-03-23T19:10:22.860Z,47.28
2023-03-23T19:12:59.008Z,47.26
2023-03-23T19:15:33.436Z,47.30
2023-03-23T19:18:08.558Z,47.45
2023-03-23T19:23:29.146Z,47.77
2023-03-23T19:26:02.994Z,47.90
2023-03-23T19:31:11.867Z,48.04
2023-03-23T19:33:48.439Z,48.19
2023-03-23T19:36:24.729Z,47.95
2023-03-23T19:39:03.010Z,47.85
2023-03-23T19:41:37.516Z,47.96
2023-03-23T19:44:11.903Z,48.01
2023-03-23T19:46:49.303Z,48.05
2023-03-23T19:49:24.641Z,48.04
2023-03-23T19:52:06.336Z,47.99
2023-03-23T19:54:44.484Z,47.89
2023-03-23T19:57:19.198Z,47.69
2023-03-23T20:00:00.835Z,47.62
2023-03-23T20:02:35.173Z,47.54
2023-03-23T20:05:09.802Z,47.55
2023-03-23T20:07:48.650Z,47.38
2023-03-23T20:10:30.073Z,47.36
2023-03-23T20:13:03.926Z,47.58
2023-03-23T20:15:38.128Z,47.56
2023-03-23T20:18:15.270Z,47.73
2023-03-23T20:20:52.779Z,47.78
2023-03-23T20:23:27.549Z,47.67
2023-03-23T20:26:11.698Z,47.56
2023-03-23T20:28:47.933Z,47.73
2023-03-23T20:31:26.400Z,47.87
2023-03-23T20:34:02.639Z,47.73
2023-03-23T20:36:46.213Z,47.81
2023-03-23T20:39:23.793Z,47.49
2023-03-23T20:42:00.016Z,47.57
2023-03-23T20:44:35.353Z,47.54
2023-03-23T20:47:13.601Z,47.48
2023-03-23T20:49:53.370Z,47.47
2023-03-23T20:52:28.719Z,47.54
2023-03-23T20:55:03.946Z,47.38
2023-03-23T20:57:39.135Z,47.19
2023-03-23T21:00:16.928Z,47.47
2023-03-23T21:02:54.539Z,47.46
2023-03-23T21:05:28.618Z,47.52
2023-03-23T21:08:04.920Z,47.52
2023-03-23T21:10:40.029Z,47.42
2023-03-23T21:13:15.012Z,47.63
2023-03-23T21:15:53.086Z,47.80
2023-03-23T21:18:27.873Z,47.88
2023-03-23T21:21:02.466Z,48.07
2023-03-23T21:23:38.973Z,48.31
2023-03-23T21:26:15.247Z,48.53
2023-03-23T21:28:51.892Z,48.52
2023-03-23T21:31:26.034Z,48.67
2023-03-23T21:34:00.886Z,48.78
2023-03-23T21:36:35.342Z,48.64
2023-03-23T21:39:12.081Z,48.43
2023-03-23T21:41:46.203Z,48.44
2023-03-23T21:44:20.316Z,48.22
2023-03-23T21:46:55.012Z,48.35
2023-03-23T21:49:30.506Z,48.41
2023-03-23T21:52:04.685Z,48.41
2023-03-23T21:54:38.786Z,48.52
2023-03-23T21:57:13.057Z,48.67
2023-03-23T21:59:48.389Z,49.01
2023-03-23T22:02:22.422Z,49.08
2023-03-23T22:04:58.572Z,49.03
2023-03-23T22:07:33.685Z,49.17
2023-03-23T22:10:09.210Z,49.17
2023-03-23T22:12:43.233Z,49.17
2023-03-23T22:15:21.226Z,49.18
2023-03-23T22:17:55.228Z,49.37
2023-03-23T22:20:29.936Z,49.45
2023-03-23T22:23:04.548Z,49.72
2023-03-23T22:25:39.476Z,49.91
2023-03-23T22:28:13.237Z,50.23
2023-03-23T22:30:47.436Z,49.86
2023-03-23T22:33:23.086Z,50.07
2023-03-23T22:35:57.017Z,49.98
2023-03-23T22:38:31.420Z,50.01
2023-03-23T22:41:07.524Z,50.10
2023-03-23T22:43:41.835Z,50.28
2023-03-23T22:46:15.947Z,50.49
2023-03-23T22:48:51.861Z,50.31
2023-03-23T22:51:26.241Z,50.60
2023-03-23T22:54:00.116Z,50.79
2023-03-23T22:56:34.222Z,50.93
2023-03-23T22:59:08.076Z,51.09
2023-03-23T23:01:41.988Z,51.17
2023-03-23T23:04:16.069Z,51.51
2023-03-23T23:06:50.948Z,51.35
2023-03-23T23:09:29.300Z,51.39
2023-03-23T23:12:03.368Z,51.19
2023-03-23T23:14:37.999Z,51.29
2023-03-23T23:17:14.076Z,51.39
2023-03-23T23:19:49.320Z,51.58
2023-03-23T23:22:23.489Z,51.88
2023-03-23T23:24:57.216Z,51.75
2023-03-23T23:27:30.947Z,51.89
2023-03-23T23:30:06.133Z,51.74
2023-03-23T23:32:43.237Z,51.68
2023-03-23T23:35:17.436Z,51.91
2023-03-23T23:37:51.962Z,51.89
2023-03-23T23:40:26.130Z,52.04
2023-03-23T23:42:59.918Z,52.14
2023-03-23T23:45:33.666Z,52.21
2023-03-23T23:48:07.964Z,52.26
2023-03-23T23:50:42.156Z,52.52
2023-03-23T23:53:17.035Z,52.91
2023-03-23T23:55:50.828Z,52.83
2023-03-23T23:58:24.584Z,53.33
